sensor_id;sensor_type;location;lat;lon;timestamp;temperature;humidity
31074;DHT22;17730;53.552;9.940;2023-03-01T00:00:37;2.40;99.90
31074;DHT22;17730;53.552;9.940;2023-03-01T00:03:02;2.40;99.90
31074;DHT22;17730;53.552;9.940;2023-03-01T00:05:28;2.30;99.90
31074;DHT22;17730;53.552;9.940;2023-03-01T00:07:53;2.30;99.90
31074;DHT22;17730;53.552;9.940;2023-03-01T00:10:19;2.30;99.90
31074;DHT22;17730;53.552;9.940;2023-03-01T00:12:44;2.20;99.90
31074;DHT22;17730;53.552;9.940;2023-03-01T00:15:10;2.20;99.90
31074;DHT22;17730;53.552;9.940;2023-03-01T00:17:36;2.20;99.90
31074;DHT22;17730;53.552;9.940;2023-03-01T00:20:02;2.20;99.90
31074;DHT22;17730;53.552;9.940;2023-03-01T00:22:27;2.20;99.90
31074;DHT22;17730;53.552;9.940;2023-03-01T00:24:56;2.20;99.90
31074;DHT22;17730;53.552;9.940;2023-03-01T00:27:21;2.30;99.90
31074;DHT22;17730;53.552;9.940;2023-03-01T00:29:47;2.20;99.90
31074;DHT22;17730;53.552;9.940;2023-03-01T00:32:12;2.20;99.90
31074;DHT22;17730;53.552;9.940;2023-03-01T00:34:37;2.10;99.90
31074;DHT22;17730;53.552;9.940;2023-03-01T00:37:03;2.20;99.90
31074;DHT22;17730;53.552;9.940;2023-03-01T00:39:30;2.20;99.90
31074;DHT22;17730;53.552;9.940;2023-03-01T00:41:56;2.10;99.90
31074;DHT22;17730;53.552;9.940;2023-03-01T00:44:22;2.10;99.90
31074;DHT22;17730;53.552;9.940;2023-03-01T00:46:47;2.10;99.90
31074;DHT22;17730;53.552;9.940;2023-03-01T00:49:13;2.00;99.90
31074;DHT22;17730;53.552;9.940;2023-03-01T00:51:39;2.00;99.90
31074;DHT22;17730;53.552;9.940;2023-03-01T00:54:09;2.10;99.90
31074;DHT22;17730;53.552;9.940;2023-03-01T00:56:35;2.10;99.90
31074;DHT22;17730;53.552;9.940;2023-03-01T00:59:00;2.00;99.90
31074;DHT22;17730;53.552;9.940;2023-03-01T01:01:27;2.00;99.90
31074;DHT22;17730;53.552;9.940;2023-03-01T01:04:03;2.00;99.90
31074;DHT22;17730;53.552;9.940;2023-03-01T01:06:30;1.90;99.90
31074;DHT22;17730;53.552;9.940;2023-03-01T01:08:56;1.90;99.90
31074;DHT22;17730;53.552;9.940;2023-03-01T01:11:22;1.80;99.90
31074;DHT22;17730;53.552;9.940;2023-03-01T01:13:48;1.80;99.90
31074;DHT22;17730;53.552;9.940;2023-03-01T01:16:14;1.80;99.90
31074;DHT22;17730;53.552;9.940;2023-03-01T01:18:40;1.70;99.90
31074;DHT22;17730;53.552;9.940;2023-03-01T01:21:07;1.80;99.90
31074;DHT22;17730;53.552;9.940;2023-03-01T01:23:32;1.80;99.90
31074;DHT22;17730;53.552;9.940;2023-03-01T01:26:02;1.80;99.90
31074;DHT22;17730;53.552;9.940;2023-03-01T01:28:28;1.80;99.90
31074;DHT22;17730;53.552;9.940;2023-03-01T01:30:54;1.80;99.90
31074;DHT22;17730;53.552;9.940;2023-03-01T01:33:19;1.80;99.90
31074;DHT22;17730;53.552;9.940;2023-03-01T01:35:45;1.70;99.90
31074;DHT22;17730;53.552;9.940;2023-03-01T01:38:10;1.70;99.90
31074;DHT22;17730;53.552;9.940;2023-03-01T01:40:42;1.70;99.90
31074;DHT22;17730;53.552;9.940;2023-03-01T01:43:12;1.70;99.90
31074;DHT22;17730;53.552;9.940;2023-03-01T01:45:41;1.60;99.90
31074;DHT22;17730;53.552;9.940;2023-03-01T01:48:12;1.60;99.90
31074;DHT22;17730;53.552;9.940;2023-03-01T01:50:39;1.50;99.90
31074;DHT22;17730;53.552;9.940;2023-03-01T01:53:06;1.50;99.90
31074;DHT22;17730;53.552;9.940;2023-03-01T01:55:33;1.50;99.90
31074;DHT22;17730;53.552;9.940;2023-03-01T01:58:02;1.60;99.90
31074;DHT22;17730;53.552;9.940;2023-03-01T02:00:29;1.60;99.90
31074;DHT22;17730;53.552;9.940;2023-03-01T02:02:57;1.60;99.90
31074;DHT22;17730;53.552;9.940;2023-03-01T02:05:29;1.60;99.90
31074;DHT22;17730;53.552;9.940;2023-03-01T02:07:58;1.60;99.90
31074;DHT22;17730;53.552;9.940;2023-03-01T02:10:23;1.60;99.90
31074;DHT22;17730;53.552;9.940;2023-03-01T02:12:49;1.70;99.90
31074;DHT22;17730;53.552;9.940;2023-03-01T02:15:15;1.70;99.90
31074;DHT22;17730;53.552;9.940;2023-03-01T02:17:41;1.70;99.90
31074;DHT22;17730;53.552;9.940;2023-03-01T02:22:35;1.60;99.90
31074;DHT22;17730;53.552;9.940;2023-03-01T02:28:03;1.50;99.90
31074;DHT22;17730;53.552;9.940;2023-03-01T02:30:30;1.50;99.90
31074;DHT22;17730;53.552;9.940;2023-03-01T02:32:56;1.50;99.90
31074;DHT22;17730;53.552;9.940;2023-03-01T02:35:29;1.60;99.90
31074;DHT22;17730;53.552;9.940;2023-03-01T02:37:55;1.60;99.90
31074;DHT22;17730;53.552;9.940;2023-03-01T02:40:24;1.70;99.90
31074;DHT22;17730;53.552;9.940;2023-03-01T02:42:51;1.70;99.90
31074;DHT22;17730;53.552;9.940;2023-03-01T02:45:17;1.70;99.90
31074;DHT22;17730;53.552;9.940;2023-03-01T02:47:43;1.70;99.90
31074;DHT22;17730;53.552;9.940;2023-03-01T02:50:22;1.70;99.90
31074;DHT22;17730;53.552;9.940;2023-03-01T02:52:53;1.80;99.90
31074;DHT22;17730;53.552;9.940;2023-03-01T02:55:21;1.80;99.90
31074;DHT22;17730;53.552;9.940;2023-03-01T02:57:46;1.80;99.90
31074;DHT22;17730;53.552;9.940;2023-03-01T03:00:21;1.80;99.90
31074;DHT22;17730;53.552;9.940;2023-03-01T03:02:51;1.70;99.90
31074;DHT22;17730;53.552;9.940;2023-03-01T03:07:43;1.70;99.90
31074;DHT22;17730;53.552;9.940;2023-03-01T03:10:11;1.60;99.90
31074;DHT22;17730;53.552;9.940;2023-03-01T03:12:37;1.60;99.90
31074;DHT22;17730;53.552;9.940;2023-03-01T03:15:03;1.50;99.90
31074;DHT22;17730;53.552;9.940;2023-03-01T03:17:36;1.40;99.90
31074;DHT22;17730;53.552;9.940;2023-03-01T03:20:03;1.40;99.90
31074;DHT22;17730;53.552;9.940;2023-03-01T03:22:29;1.40;99.90
31074;DHT22;17730;53.552;9.940;2023-03-01T03:24:54;1.40;99.90
31074;DHT22;17730;53.552;9.940;2023-03-01T03:27:20;1.50;99.90
31074;DHT22;17730;53.552;9.940;2023-03-01T03:29:45;1.60;99.90
31074;DHT22;17730;53.552;9.940;2023-03-01T03:32:11;1.60;99.90
31074;DHT22;17730;53.552;9.940;2023-03-01T03:34:36;1.60;99.90
31074;DHT22;17730;53.552;9.940;2023-03-01T03:37:02;1.60;99.90
31074;DHT22;17730;53.552;9.940;2023-03-01T03:39:27;1.70;99.90
31074;DHT22;17730;53.552;9.940;2023-03-01T03:41:54;1.70;99.90
31074;DHT22;17730;53.552;9.940;2023-03-01T03:44:20;1.80;99.90
31074;DHT22;17730;53.552;9.940;2023-03-01T03:46:45;1.90;99.90
31074;DHT22;17730;53.552;9.940;2023-03-01T03:49:11;1.90;99.90
31074;DHT22;17730;53.552;9.940;2023-03-01T03:51:36;2.00;99.90
31074;DHT22;17730;53.552;9.940;2023-03-01T03:54:02;2.10;99.90
31074;DHT22;17730;53.552;9.940;2023-03-01T03:56:27;2.20;99.90
31074;DHT22;17730;53.552;9.940;2023-03-01T03:58:53;2.20;99.90
31074;DHT22;17730;53.552;9.940;2023-03-01T04:01:18;2.30;99.90
31074;DHT22;17730;53.552;9.940;2023-03-01T04:03:44;2.30;99.90
31074;DHT22;17730;53.552;9.940;2023-03-01T04:06:12;2.30;99.90
31074;DHT22;17730;53.552;9.940;2023-03-01T04:08:38;2.30;99.90
31074;DHT22;17730;53.552;9.940;2023-03-01T04:11:04;2.40;99.90
31074;DHT22;17730;53.552;9.940;2023-03-01T04:13:49;2.40;99.90
31074;DHT22;17730;53.552;9.940;2023-03-01T04:16:15;2.40;99.90
31074;DHT22;17730;53.552;9.940;2023-03-01T04:18:41;2.50;99.90
31074;DHT22;17730;53.552;9.940;2023-03-01T04:21:06;2.50;99.90
31074;DHT22;17730;53.552;9.940;2023-03-01T04:23:32;2.60;99.90
31074;DHT22;17730;53.552;9.940;2023-03-01T04:25:58;2.70;99.90
31074;DHT22;17730;53.552;9.940;2023-03-01T04:28:25;2.70;99.90
31074;DHT22;17730;53.552;9.940;2023-03-01T04:30:51;2.80;99.90
31074;DHT22;17730;53.552;9.940;2023-03-01T04:33:17;2.80;99.90
31074;DHT22;17730;53.552;9.940;2023-03-01T04:35:43;2.90;99.90
31074;DHT22;17730;53.552;9.940;2023-03-01T04:38:09;2.90;99.90
31074;DHT22;17730;53.552;9.940;2023-03-01T04:40:34;2.90;99.90
31074;DHT22;17730;53.552;9.940;2023-03-01T04:43:00;3.00;99.90
31074;DHT22;17730;53.552;9.940;2023-03-01T04:45:26;3.00;99.90
31074;DHT22;17730;53.552;9.940;2023-03-01T04:47:53;3.00;99.90
31074;DHT22;17730;53.552;9.940;2023-03-01T04:50:19;3.00;99.90
31074;DHT22;17730;53.552;9.940;2023-03-01T04:52:48;3.00;99.90
31074;DHT22;17730;53.552;9.940;2023-03-01T04:55:14;3.00;99.90
31074;DHT22;17730;53.552;9.940;2023-03-01T04:57:40;3.10;99.90
31074;DHT22;17730;53.552;9.940;2023-03-01T05:00:07;3.10;99.90
31074;DHT22;17730;53.552;9.940;2023-03-01T05:02:55;3.10;99.90
31074;DHT22;17730;53.552;9.940;2023-03-01T05:05:28;3.10;99.90
31074;DHT22;17730;53.552;9.940;2023-03-01T05:07:54;3.10;99.90
31074;DHT22;17730;53.552;9.940;2023-03-01T05:10:21;3.10;99.90
31074;DHT22;17730;53.552;9.940;2023-03-01T05:12:47;3.10;99.90
31074;DHT22;17730;53.552;9.940;2023-03-01T05:15:13;3.20;99.90
31074;DHT22;17730;53.552;9.940;2023-03-01T05:17:38;3.20;99.90
31074;DHT22;17730;53.552;9.940;2023-03-01T05:20:04;3.10;99.90
31074;DHT22;17730;53.552;9.940;2023-03-01T05:22:34;3.10;99.90
31074;DHT22;17730;53.552;9.940;2023-03-01T05:24:59;3.10;99.90
31074;DHT22;17730;53.552;9.940;2023-03-01T05:27:25;3.10;99.90
31074;DHT22;17730;53.552;9.940;2023-03-01T05:29:51;3.10;99.90
31074;DHT22;17730;53.552;9.940;2023-03-01T05:32:16;3.10;99.90
31074;DHT22;17730;53.552;9.940;2023-03-01T05:34:42;3.10;99.90
31074;DHT22;17730;53.552;9.940;2023-03-01T05:37:07;3.20;99.90
31074;DHT22;17730;53.552;9.940;2023-03-01T05:39:33;3.20;99.90
31074;DHT22;17730;53.552;9.940;2023-03-01T05:42:00;3.20;99.90
31074;DHT22;17730;53.552;9.940;2023-03-01T05:44:27;3.20;99.90
31074;DHT22;17730;53.552;9.940;2023-03-01T05:46:52;3.20;99.90
31074;DHT22;17730;53.552;9.940;2023-03-01T05:49:18;3.30;99.90
31074;DHT22;17730;53.552;9.940;2023-03-01T05:51:47;3.40;99.90
31074;DHT22;17730;53.552;9.940;2023-03-01T05:54:12;3.40;99.90
31074;DHT22;17730;53.552;9.940;2023-03-01T05:56:38;3.40;99.90
31074;DHT22;17730;53.552;9.940;2023-03-01T05:59:04;3.40;99.90
31074;DHT22;17730;53.552;9.940;2023-03-01T06:01:32;3.30;99.90
31074;DHT22;17730;53.552;9.940;2023-03-01T06:03:58;3.40;99.90
31074;DHT22;17730;53.552;9.940;2023-03-01T06:06:24;3.40;99.90
31074;DHT22;17730;53.552;9.940;2023-03-01T06:08:50;3.50;99.90
31074;DHT22;17730;53.552;9.940;2023-03-01T06:11:15;3.50;99.90
31074;DHT22;17730;53.552;9.940;2023-03-01T06:13:44;3.50;99.90
31074;DHT22;17730;53.552;9.940;2023-03-01T06:16:10;3.50;99.90
31074;DHT22;17730;53.552;9.940;2023-03-01T06:18:36;3.40;99.90
31074;DHT22;17730;53.552;9.940;2023-03-01T06:21:02;3.50;99.90
31074;DHT22;17730;53.552;9.940;2023-03-01T06:23:27;3.50;99.90
31074;DHT22;17730;53.552;9.940;2023-03-01T06:25:53;3.40;99.90
31074;DHT22;17730;53.552;9.940;2023-03-01T06:28:18;3.40;99.90
31074;DHT22;17730;53.552;9.940;2023-03-01T06:30:44;3.40;99.90
31074;DHT22;17730;53.552;9.940;2023-03-01T06:33:10;3.50;99.90
31074;DHT22;17730;53.552;9.940;2023-03-01T06:35:35;3.50;99.90
31074;DHT22;17730;53.552;9.940;2023-03-01T06:38:01;3.50;99.90
31074;DHT22;17730;53.552;9.940;2023-03-01T06:40:27;3.50;99.90
31074;DHT22;17730;53.552;9.940;2023-03-01T06:42:53;3.40;99.90
31074;DHT22;17730;53.552;9.940;2023-03-01T06:45:19;3.40;99.90
31074;DHT22;17730;53.552;9.940;2023-03-01T06:47:44;3.50;99.90
31074;DHT22;17730;53.552;9.940;2023-03-01T06:50:10;3.50;99.90
31074;DHT22;17730;53.552;9.940;2023-03-01T06:52:36;3.50;99.90
31074;DHT22;17730;53.552;9.940;2023-03-01T06:55:01;3.50;99.90
31074;DHT22;17730;53.552;9.940;2023-03-01T06:57:27;3.60;99.90
31074;DHT22;17730;53.552;9.940;2023-03-01T06:59:53;3.70;99.90
31074;DHT22;17730;53.552;9.940;2023-03-01T07:02:18;3.70;99.90
31074;DHT22;17730;53.552;9.940;2023-03-01T07:04:44;3.80;99.90
31074;DHT22;17730;53.552;9.940;2023-03-01T07:07:09;3.90;99.90
31074;DHT22;17730;53.552;9.940;2023-03-01T07:09:35;3.90;99.90
31074;DHT22;17730;53.552;9.940;2023-03-01T07:12:00;3.90;99.90
31074;DHT22;17730;53.552;9.940;2023-03-01T07:14:26;3.90;99.90
31074;DHT22;17730;53.552;9.940;2023-03-01T07:16:52;3.90;99.90
31074;DHT22;17730;53.552;9.940;2023-03-01T07:19:18;4.00;99.90
31074;DHT22;17730;53.552;9.940;2023-03-01T07:21:44;4.10;99.90
31074;DHT22;17730;53.552;9.940;2023-03-01T07:24:09;4.20;99.90
31074;DHT22;17730;53.552;9.940;2023-03-01T07:26:35;4.20;99.90
31074;DHT22;17730;53.552;9.940;2023-03-01T07:29:01;4.30;99.90
31074;DHT22;17730;53.552;9.940;2023-03-01T07:31:27;4.20;99.90
31074;DHT22;17730;53.552;9.940;2023-03-01T07:33:55;4.20;99.90
31074;DHT22;17730;53.552;9.940;2023-03-01T07:36:21;4.20;99.90
31074;DHT22;17730;53.552;9.940;2023-03-01T07:38:46;4.20;99.90
31074;DHT22;17730;53.552;9.940;2023-03-01T07:41:12;4.20;99.90
31074;DHT22;17730;53.552;9.940;2023-03-01T07:43:37;4.20;99.90
31074;DHT22;17730;53.552;9.940;2023-03-01T07:46:03;4.30;99.90
31074;DHT22;17730;53.552;9.940;2023-03-01T07:48:29;4.40;99.90
31074;DHT22;17730;53.552;9.940;2023-03-01T07:50:57;4.40;99.90
31074;DHT22;17730;53.552;9.940;2023-03-01T07:53:23;4.40;99.90
31074;DHT22;17730;53.552;9.940;2023-03-01T07:55:48;4.40;99.90
31074;DHT22;17730;53.552;9.940;2023-03-01T07:58:14;4.50;99.90
31074;DHT22;17730;53.552;9.940;2023-03-01T08:00:39;4.50;99.90
31074;DHT22;17730;53.552;9.940;2023-03-01T08:03:04;4.50;99.90
31074;DHT22;17730;53.552;9.940;2023-03-01T08:05:30;4.50;99.90
31074;DHT22;17730;53.552;9.940;2023-03-01T08:07:55;4.50;99.90
31074;DHT22;17730;53.552;9.940;2023-03-01T08:10:21;4.40;99.90
31074;DHT22;17730;53.552;9.940;2023-03-01T08:12:47;4.40;99.90
31074;DHT22;17730;53.552;9.940;2023-03-01T08:15:12;4.40;99.90
31074;DHT22;17730;53.552;9.940;2023-03-01T08:17:38;4.40;99.90
31074;DHT22;17730;53.552;9.940;2023-03-01T08:20:03;4.60;99.90
31074;DHT22;17730;53.552;9.940;2023-03-01T08:22:32;4.70;99.90
31074;DHT22;17730;53.552;9.940;2023-03-01T08:24:57;4.80;99.90
31074;DHT22;17730;53.552;9.940;2023-03-01T08:27:23;4.90;99.90
31074;DHT22;17730;53.552;9.940;2023-03-01T08:29:48;5.00;99.90
31074;DHT22;17730;53.552;9.940;2023-03-01T08:32:14;5.20;99.90
31074;DHT22;17730;53.552;9.940;2023-03-01T08:34:39;5.30;99.90
31074;DHT22;17730;53.552;9.940;2023-03-01T08:37:05;5.30;99.90
31074;DHT22;17730;53.552;9.940;2023-03-01T08:39:30;5.30;99.90
31074;DHT22;17730;53.552;9.940;2023-03-01T08:41:56;5.40;99.90
31074;DHT22;17730;53.552;9.940;2023-03-01T08:44:22;5.60;99.90
31074;DHT22;17730;53.552;9.940;2023-03-01T08:46:48;5.60;99.90
31074;DHT22;17730;53.552;9.940;2023-03-01T08:49:16;5.50;99.90
31074;DHT22;17730;53.552;9.940;2023-03-01T08:51:42;5.50;99.90
31074;DHT22;17730;53.552;9.940;2023-03-01T08:54:14;5.60;99.90
31074;DHT22;17730;53.552;9.940;2023-03-01T08:56:40;5.80;99.90
31074;DHT22;17730;53.552;9.940;2023-03-01T08:59:06;6.10;99.90
31074;DHT22;17730;53.552;9.940;2023-03-01T09:01:32;6.40;99.90
31074;DHT22;17730;53.552;9.940;2023-03-01T09:03:58;6.50;99.90
31074;DHT22;17730;53.552;9.940;2023-03-01T09:06:23;6.70;99.60
31074;DHT22;17730;53.552;9.940;2023-03-01T09:08:49;6.70;99.70
31074;DHT22;17730;53.552;9.940;2023-03-01T09:11:16;6.50;99.90
31074;DHT22;17730;53.552;9.940;2023-03-01T09:13:46;6.40;99.90
31074;DHT22;17730;53.552;9.940;2023-03-01T09:16:12;6.30;99.90
31074;DHT22;17730;53.552;9.940;2023-03-01T09:18:38;6.30;99.90
31074;DHT22;17730;53.552;9.940;2023-03-01T09:21:05;6.50;99.90
31074;DHT22;17730;53.552;9.940;2023-03-01T09:23:35;6.50;99.90
31074;DHT22;17730;53.552;9.940;2023-03-01T09:26:02;6.70;99.90
31074;DHT22;17730;53.552;9.940;2023-03-01T09:28:28;6.90;99.90
31074;DHT22;17730;53.552;9.940;2023-03-01T09:30:53;7.10;99.90
31074;DHT22;17730;53.552;9.940;2023-03-01T09:33:19;7.00;99.20
31074;DHT22;17730;53.552;9.940;2023-03-01T09:35:44;7.00;99.80
31074;DHT22;17730;53.552;9.940;2023-03-01T09:38:12;6.80;99.90
31074;DHT22;17730;53.552;9.940;2023-03-01T09:40:41;6.80;99.90
31074;DHT22;17730;53.552;9.940;2023-03-01T09:43:21;6.90;99.90
31074;DHT22;17730;53.552;9.940;2023-03-01T09:45:49;7.00;99.90
31074;DHT22;17730;53.552;9.940;2023-03-01T09:48:17;7.00;99.90
31074;DHT22;17730;53.552;9.940;2023-03-01T09:50:43;6.80;99.90
31074;DHT22;17730;53.552;9.940;2023-03-01T09:53:13;6.80;99.90
31074;DHT22;17730;53.552;9.940;2023-03-01T09:55:59;6.70;99.90
31074;DHT22;17730;53.552;9.940;2023-03-01T09:58:29;6.90;99.90
31074;DHT22;17730;53.552;9.940;2023-03-01T10:00:57;7.60;99.90
31074;DHT22;17730;53.552;9.940;2023-03-01T10:03:44;7.40;99.80
31074;DHT22;17730;53.552;9.940;2023-03-01T10:06:14;7.10;99.90
31074;DHT22;17730;53.552;9.940;2023-03-01T10:08:50;7.20;99.90
31074;DHT22;17730;53.552;9.940;2023-03-01T10:16:15;7.10;99.90
31074;DHT22;17730;53.552;9.940;2023-03-01T10:18:42;7.40;99.90
31074;DHT22;17730;53.552;9.940;2023-03-01T10:21:14;7.60;99.90
31074;DHT22;17730;53.552;9.940;2023-03-01T10:23:41;7.40;99.90
31074;DHT22;17730;53.552;9.940;2023-03-01T10:29:05;7.60;99.90
31074;DHT22;17730;53.552;9.940;2023-03-01T10:31:36;7.90;99.90
31074;DHT22;17730;53.552;9.940;2023-03-01T10:34:13;8.10;99.80
31074;DHT22;17730;53.552;9.940;2023-03-01T10:36:39;8.00;99.90
31074;DHT22;17730;53.552;9.940;2023-03-01T10:39:13;7.80;99.90
31074;DHT22;17730;53.552;9.940;2023-03-01T10:47:00;8.00;99.90
31074;DHT22;17730;53.552;9.940;2023-03-01T10:49:26;8.10;99.90
31074;DHT22;17730;53.552;9.940;2023-03-01T10:51:52;8.00;99.90
31074;DHT22;17730;53.552;9.940;2023-03-01T10:56:50;7.80;99.90
31074;DHT22;17730;53.552;9.940;2023-03-01T10:59:27;7.90;99.90
31074;DHT22;17730;53.552;9.940;2023-03-01T11:04:37;7.80;99.90
31074;DHT22;17730;53.552;9.940;2023-03-01T11:07:03;7.80;99.90
31074;DHT22;17730;53.552;9.940;2023-03-01T11:09:32;7.60;99.90
31074;DHT22;17730;53.552;9.940;2023-03-01T11:12:05;7.40;99.90
31074;DHT22;17730;53.552;9.940;2023-03-01T11:14:37;7.50;99.90
31074;DHT22;17730;53.552;9.940;2023-03-01T11:17:12;7.60;99.90
31074;DHT22;17730;53.552;9.940;2023-03-01T11:19:40;7.50;99.90
31074;DHT22;17730;53.552;9.940;2023-03-01T11:22:08;7.70;99.90
31074;DHT22;17730;53.552;9.940;2023-03-01T11:24:40;7.70;99.90
31074;DHT22;17730;53.552;9.940;2023-03-01T11:27:26;7.90;99.90
31074;DHT22;17730;53.552;9.940;2023-03-01T11:29:57;7.80;99.90
31074;DHT22;17730;53.552;9.940;2023-03-01T11:32:25;7.90;99.90
31074;DHT22;17730;53.552;9.940;2023-03-01T11:34:54;7.90;99.90
31074;DHT22;17730;53.552;9.940;2023-03-01T11:37:26;7.90;99.90
31074;DHT22;17730;53.552;9.940;2023-03-01T11:39:56;8.20;99.90
31074;DHT22;17730;53.552;9.940;2023-03-01T11:42:34;8.40;99.90
31074;DHT22;17730;53.552;9.940;2023-03-01T11:45:06;8.40;99.90
31074;DHT22;17730;53.552;9.940;2023-03-01T11:50:19;8.60;99.90
31074;DHT22;17730;53.552;9.940;2023-03-01T11:55:40;8.90;99.90
31074;DHT22;17730;53.552;9.940;2023-03-01T11:58:24;9.20;99.90
31074;DHT22;17730;53.552;9.940;2023-03-01T12:04:04;9.30;99.90
31074;DHT22;17730;53.552;9.940;2023-03-01T12:06:38;9.60;99.70
31074;DHT22;17730;53.552;9.940;2023-03-01T12:09:11;9.60;99.30
31074;DHT22;17730;53.552;9.940;2023-03-01T12:21:53;9.70;99.10
31074;DHT22;17730;53.552;9.940;2023-03-01T12:31:48;10.10;98.30
31074;DHT22;17730;53.552;9.940;2023-03-01T12:45:46;9.90;98.80
31074;DHT22;17730;53.552;9.940;2023-03-01T12:50:40;10.00;98.60
31074;DHT22;17730;53.552;9.940;2023-03-01T12:53:07;9.80;99.10
31074;DHT22;17730;53.552;9.940;2023-03-01T12:55:38;9.90;99.40
31074;DHT22;17730;53.552;9.940;2023-03-01T13:08:44;10.00;98.80
31074;DHT22;17730;53.552;9.940;2023-03-01T13:11:20;9.80;99.30
31074;DHT22;17730;53.552;9.940;2023-03-01T13:13:46;9.70;99.20
31074;DHT22;17730;53.552;9.940;2023-03-01T13:16:56;9.80;99.50
31074;DHT22;17730;53.552;9.940;2023-03-01T13:19:10;9.90;99.60
31074;DHT22;17730;53.552;9.940;2023-03-01T13:21:38;10.00;99.70
31074;DHT22;17730;53.552;9.940;2023-03-01T13:24:03;10.20;98.80
31074;DHT22;17730;53.552;9.940;2023-03-01T13:26:29;10.00;98.50
31074;DHT22;17730;53.552;9.940;2023-03-01T13:28:55;9.70;99.00
31074;DHT22;17730;53.552;9.940;2023-03-01T13:33:54;9.50;99.60
31074;DHT22;17730;53.552;9.940;2023-03-01T13:38:55;9.40;99.90
31074;DHT22;17730;53.552;9.940;2023-03-01T13:46:45;9.60;99.90
31074;DHT22;17730;53.552;9.940;2023-03-01T13:49:13;9.80;99.90
31074;DHT22;17730;53.552;9.940;2023-03-01T13:51:39;9.90;99.90
31074;DHT22;17730;53.552;9.940;2023-03-01T13:54:04;9.90;99.90
31074;DHT22;17730;53.552;9.940;2023-03-01T13:56:34;9.70;99.50
31074;DHT22;17730;53.552;9.940;2023-03-01T13:59:05;9.30;99.90
31074;DHT22;17730;53.552;9.940;2023-03-01T14:01:33;9.30;99.90
31074;DHT22;17730;53.552;9.940;2023-03-01T14:03:59;9.30;99.90
31074;DHT22;17730;53.552;9.940;2023-03-01T14:08:51;8.80;99.90
31074;DHT22;17730;53.552;9.940;2023-03-01T14:16:52;8.70;99.90
31074;DHT22;17730;53.552;9.940;2023-03-01T14:19:24;8.90;99.90
31074;DHT22;17730;53.552;9.940;2023-03-01T14:24:35;9.10;99.90
31074;DHT22;17730;53.552;9.940;2023-03-01T14:27:03;9.20;99.90
31074;DHT22;17730;53.552;9.940;2023-03-01T14:29:36;8.90;99.90
31074;DHT22;17730;53.552;9.940;2023-03-01T14:32:09;8.90;99.90
31074;DHT22;17730;53.552;9.940;2023-03-01T14:34:35;8.70;99.90
31074;DHT22;17730;53.552;9.940;2023-03-01T14:39:45;8.90;99.90
31074;DHT22;17730;53.552;9.940;2023-03-01T14:42:11;8.80;99.90
31074;DHT22;17730;53.552;9.940;2023-03-01T14:44:37;8.80;99.90
31074;DHT22;17730;53.552;9.940;2023-03-01T14:47:02;8.70;99.90
31074;DHT22;17730;53.552;9.940;2023-03-01T14:49:31;8.70;99.90
31074;DHT22;17730;53.552;9.940;2023-03-01T14:52:02;8.70;99.90
31074;DHT22;17730;53.552;9.940;2023-03-01T14:54:29;8.50;99.90
31074;DHT22;17730;53.552;9.940;2023-03-01T14:56:58;8.40;99.90
31074;DHT22;17730;53.552;9.940;2023-03-01T14:59:25;8.40;99.90
31074;DHT22;17730;53.552;9.940;2023-03-01T15:01:51;8.60;99.90
31074;DHT22;17730;53.552;9.940;2023-03-01T15:04:18;8.60;99.90
31074;DHT22;17730;53.552;9.940;2023-03-01T15:06:44;8.50;99.90
31074;DHT22;17730;53.552;9.940;2023-03-01T15:09:15;8.50;99.90
31074;DHT22;17730;53.552;9.940;2023-03-01T15:11:42;8.50;99.90
31074;DHT22;17730;53.552;9.940;2023-03-01T15:14:28;8.40;99.90
31074;DHT22;17730;53.552;9.940;2023-03-01T15:16:54;8.30;99.90
31074;DHT22;17730;53.552;9.940;2023-03-01T15:19:19;8.40;99.90
31074;DHT22;17730;53.552;9.940;2023-03-01T15:21:46;8.40;99.90
31074;DHT22;17730;53.552;9.940;2023-03-01T15:26:52;8.20;99.90
31074;DHT22;17730;53.552;9.940;2023-03-01T15:29:21;8.30;99.90
31074;DHT22;17730;53.552;9.940;2023-03-01T15:34:25;8.40;99.90
31074;DHT22;17730;53.552;9.940;2023-03-01T15:36:52;8.40;99.90
31074;DHT22;17730;53.552;9.940;2023-03-01T15:42:03;8.30;99.90
31074;DHT22;17730;53.552;9.940;2023-03-01T15:44:30;8.30;99.90
31074;DHT22;17730;53.552;9.940;2023-03-01T15:46:56;8.20;99.90
31074;DHT22;17730;53.552;9.940;2023-03-01T15:49:34;8.10;99.90
31074;DHT22;17730;53.552;9.940;2023-03-01T15:52:01;8.10;99.90
31074;DHT22;17730;53.552;9.940;2023-03-01T15:54:27;8.10;99.90
31074;DHT22;17730;53.552;9.940;2023-03-01T15:56:53;8.10;99.90
31074;DHT22;17730;53.552;9.940;2023-03-01T15:59:18;8.00;99.90
31074;DHT22;17730;53.552;9.940;2023-03-01T16:01:44;7.90;99.90
31074;DHT22;17730;53.552;9.940;2023-03-01T16:04:10;7.70;99.90
31074;DHT22;17730;53.552;9.940;2023-03-01T16:06:38;7.60;99.90
31074;DHT22;17730;53.552;9.940;2023-03-01T16:09:04;7.50;99.90
31074;DHT22;17730;53.552;9.940;2023-03-01T16:11:30;7.40;99.90
31074;DHT22;17730;53.552;9.940;2023-03-01T16:13:57;7.30;99.90
31074;DHT22;17730;53.552;9.940;2023-03-01T16:16:23;7.30;99.90
31074;DHT22;17730;53.552;9.940;2023-03-01T16:18:48;7.20;99.90
31074;DHT22;17730;53.552;9.940;2023-03-01T16:21:15;7.10;99.90
31074;DHT22;17730;53.552;9.940;2023-03-01T16:23:42;7.10;99.90
31074;DHT22;17730;53.552;9.940;2023-03-01T16:26:08;7.00;99.90
31074;DHT22;17730;53.552;9.940;2023-03-01T16:28:34;6.90;99.90
31074;DHT22;17730;53.552;9.940;2023-03-01T16:30:59;6.80;99.90
31074;DHT22;17730;53.552;9.940;2023-03-01T16:33:26;6.70;99.90
31074;DHT22;17730;53.552;9.940;2023-03-01T16:35:52;6.70;99.90
31074;DHT22;17730;53.552;9.940;2023-03-01T16:38:17;6.60;99.90
31074;DHT22;17730;53.552;9.940;2023-03-01T16:40:46;6.50;99.90
31074;DHT22;17730;53.552;9.940;2023-03-01T16:43:12;6.40;99.90
31074;DHT22;17730;53.552;9.940;2023-03-01T16:45:37;6.40;99.90
31074;DHT22;17730;53.552;9.940;2023-03-01T16:48:05;6.30;99.90
31074;DHT22;17730;53.552;9.940;2023-03-01T16:50:31;6.30;99.90
31074;DHT22;17730;53.552;9.940;2023-03-01T16:52:56;6.20;99.90
31074;DHT22;17730;53.552;9.940;2023-03-01T16:55:22;6.20;99.90
31074;DHT22;17730;53.552;9.940;2023-03-01T16:57:48;6.20;99.90
31074;DHT22;17730;53.552;9.940;2023-03-01T17:00:14;6.10;99.90
31074;DHT22;17730;53.552;9.940;2023-03-01T17:02:40;6.10;99.90
31074;DHT22;17730;53.552;9.940;2023-03-01T17:05:06;6.10;99.90
31074;DHT22;17730;53.552;9.940;2023-03-01T17:07:32;6.10;99.90
31074;DHT22;17730;53.552;9.940;2023-03-01T17:10:02;6.00;99.90
31074;DHT22;17730;53.552;9.940;2023-03-01T17:12:28;6.00;99.90
31074;DHT22;17730;53.552;9.940;2023-03-01T17:14:53;5.90;99.90
31074;DHT22;17730;53.552;9.940;2023-03-01T17:17:19;5.90;99.90
31074;DHT22;17730;53.552;9.940;2023-03-01T17:19:44;5.80;99.90
31074;DHT22;17730;53.552;9.940;2023-03-01T17:22:10;5.80;99.90
31074;DHT22;17730;53.552;9.940;2023-03-01T17:24:39;5.80;99.90
31074;DHT22;17730;53.552;9.940;2023-03-01T17:27:04;5.80;99.90
31074;DHT22;17730;53.552;9.940;2023-03-01T17:29:30;5.70;99.90
31074;DHT22;17730;53.552;9.940;2023-03-01T17:31:56;5.70;99.90
31074;DHT22;17730;53.552;9.940;2023-03-01T17:34:22;5.60;99.90